sensor_id;sensor_type;location;lat;lon;timestamp;temperature;humidity
39957;DHT22;48483;44.640;7.494;2023-01-24T00:02:02;5.60;99.90
39957;DHT22;48483;44.640;7.494;2023-01-24T00:04:29;5.60;99.90
39957;DHT22;48483;44.640;7.494;2023-01-24T00:06:57;5.60;99.90
39957;DHT22;48483;44.640;7.494;2023-01-24T00:09:23;5.60;99.90
39957;DHT22;48483;44.640;7.494;2023-01-24T00:11:50;5.60;99.90
39957;DHT22;48483;44.640;7.494;2023-01-24T00:14:16;5.60;99.90
39957;DHT22;48483;44.640;7.494;2023-01-24T00:16:43;5.60;99.90
39957;DHT22;48483;44.640;7.494;2023-01-24T00:19:09;5.60;99.90
39957;DHT22;48483;44.640;7.494;2023-01-24T00:21:36;5.60;99.90
39957;DHT22;48483;44.640;7.494;2023-01-24T00:24:05;5.60;99.90
39957;DHT22;48483;44.640;7.494;2023-01-24T00:26:31;5.60;99.90
39957;DHT22;48483;44.640;7.494;2023-01-24T00:28:58;5.60;99.90
39957;DHT22;48483;44.640;7.494;2023-01-24T00:31:25;5.70;99.90
39957;DHT22;48483;44.640;7.494;2023-01-24T00:33:53;5.60;99.90
39957;DHT22;48483;44.640;7.494;2023-01-24T00:36:20;5.60;99.90
39957;DHT22;48483;44.640;7.494;2023-01-24T00:38:46;5.60;99.90
39957;DHT22;48483;44.640;7.494;2023-01-24T00:41:14;5.60;99.90
39957;DHT22;48483;44.640;7.494;2023-01-24T00:43:41;5.70;99.90
39957;DHT22;48483;44.640;7.494;2023-01-24T00:46:08;5.60;99.90
39957;DHT22;48483;44.640;7.494;2023-01-24T00:48:35;5.70;99.90
39957;DHT22;48483;44.640;7.494;2023-01-24T00:51:03;5.70;99.90
39957;DHT22;48483;44.640;7.494;2023-01-24T00:53:30;5.70;99.90
39957;DHT22;48483;44.640;7.494;2023-01-24T00:55:56;5.70;99.90
39957;DHT22;48483;44.640;7.494;2023-01-24T00:58:25;5.70;99.90
39957;DHT22;48483;44.640;7.494;2023-01-24T01:00:54;5.70;99.90
39957;DHT22;48483;44.640;7.494;2023-01-24T01:03:21;5.70;99.90
39957;DHT22;48483;44.640;7.494;2023-01-24T01:05:48;5.70;99.90
39957;DHT22;48483;44.640;7.494;2023-01-24T01:08:16;5.70;99.90
39957;DHT22;48483;44.640;7.494;2023-01-24T01:10:43;5.70;99.90
39957;DHT22;48483;44.640;7.494;2023-01-24T01:13:12;5.80;99.90
39957;DHT22;48483;44.640;7.494;2023-01-24T01:15:40;5.70;99.90
39957;DHT22;48483;44.640;7.494;2023-01-24T01:18:07;5.70;99.90
39957;DHT22;48483;44.640;7.494;2023-01-24T01:20:33;5.70;99.90
39957;DHT22;48483;44.640;7.494;2023-01-24T01:23:00;5.70;99.90
39957;DHT22;48483;44.640;7.494;2023-01-24T01:25:26;5.70;99.90
39957;DHT22;48483;44.640;7.494;2023-01-24T01:27:53;5.70;99.90
39957;DHT22;48483;44.640;7.494;2023-01-24T01:30:20;5.70;99.90
39957;DHT22;48483;44.640;7.494;2023-01-24T01:32:48;5.70;99.90
39957;DHT22;48483;44.640;7.494;2023-01-24T01:35:15;5.70;99.90
39957;DHT22;48483;44.640;7.494;2023-01-24T01:37:41;5.70;99.90
39957;DHT22;48483;44.640;7.494;2023-01-24T01:40:09;5.70;99.90
39957;DHT22;48483;44.640;7.494;2023-01-24T01:42:49;5.70;99.90
39957;DHT22;48483;44.640;7.494;2023-01-24T01:45:37;5.70;99.90
39957;DHT22;48483;44.640;7.494;2023-01-24T01:48:17;5.70;99.90
39957;DHT22;48483;44.640;7.494;2023-01-24T01:50:47;5.70;99.90
39957;DHT22;48483;44.640;7.494;2023-01-24T01:53:15;5.70;99.90
39957;DHT22;48483;44.640;7.494;2023-01-24T01:55:47;5.70;99.90
39957;DHT22;48483;44.640;7.494;2023-01-24T01:58:15;5.70;99.90
39957;DHT22;48483;44.640;7.494;2023-01-24T02:00:44;5.60;99.90
39957;DHT22;48483;44.640;7.494;2023-01-24T02:03:21;5.60;99.90
39957;DHT22;48483;44.640;7.494;2023-01-24T02:06:18;5.60;99.90
39957;DHT22;48483;44.640;7.494;2023-01-24T02:08:49;5.60;99.90
39957;DHT22;48483;44.640;7.494;2023-01-24T02:11:16;5.60;99.90
39957;DHT22;48483;44.640;7.494;2023-01-24T02:14:02;5.60;99.90
39957;DHT22;48483;44.640;7.494;2023-01-24T02:16:47;5.60;99.90
39957;DHT22;48483;44.640;7.494;2023-01-24T02:22:23;5.60;99.90
39957;DHT22;48483;44.640;7.494;2023-01-24T02:25:00;5.60;99.90
39957;DHT22;48483;44.640;7.494;2023-01-24T02:27:28;5.50;99.90
39957;DHT22;48483;44.640;7.494;2023-01-24T02:29:56;5.50;99.90
39957;DHT22;48483;44.640;7.494;2023-01-24T02:32:23;5.50;99.90
39957;DHT22;48483;44.640;7.494;2023-01-24T02:34:49;5.60;99.90
39957;DHT22;48483;44.640;7.494;2023-01-24T02:37:19;5.60;99.90
39957;DHT22;48483;44.640;7.494;2023-01-24T02:39:50;5.60;99.90
39957;DHT22;48483;44.640;7.494;2023-01-24T02:42:23;5.70;99.90
39957;DHT22;48483;44.640;7.494;2023-01-24T02:44:58;5.60;99.90
39957;DHT22;48483;44.640;7.494;2023-01-24T02:47:29;5.60;99.90
39957;DHT22;48483;44.640;7.494;2023-01-24T02:49:58;5.60;99.90
39957;DHT22;48483;44.640;7.494;2023-01-24T02:52:25;5.50;99.90
39957;DHT22;48483;44.640;7.494;2023-01-24T02:55:11;5.50;99.90
39957;DHT22;48483;44.640;7.494;2023-01-24T02:57:37;5.50;99.90
39957;DHT22;48483;44.640;7.494;2023-01-24T03:00:24;5.60;99.90
39957;DHT22;48483;44.640;7.494;2023-01-24T03:02:51;5.60;99.90
39957;DHT22;48483;44.640;7.494;2023-01-24T03:05:17;5.60;99.90
39957;DHT22;48483;44.640;7.494;2023-01-24T03:07:44;5.60;99.90
39957;DHT22;48483;44.640;7.494;2023-01-24T03:10:15;5.60;99.90
39957;DHT22;48483;44.640;7.494;2023-01-24T03:12:44;5.60;99.90
39957;DHT22;48483;44.640;7.494;2023-01-24T03:15:30;5.60;99.90
39957;DHT22;48483;44.640;7.494;2023-01-24T03:18:16;5.60;99.90
39957;DHT22;48483;44.640;7.494;2023-01-24T03:21:01;5.60;99.90
39957;DHT22;48483;44.640;7.494;2023-01-24T03:23:47;5.60;99.90
39957;DHT22;48483;44.640;7.494;2023-01-24T03:26:32;5.60;99.90
39957;DHT22;48483;44.640;7.494;2023-01-24T03:29:19;5.60;99.90
39957;DHT22;48483;44.640;7.494;2023-01-24T03:32:05;5.60;99.90
39957;DHT22;48483;44.640;7.494;2023-01-24T03:34:50;5.60;99.90
39957;DHT22;48483;44.640;7.494;2023-01-24T03:37:22;5.60;99.90
39957;DHT22;48483;44.640;7.494;2023-01-24T03:40:11;5.60;99.90
39957;DHT22;48483;44.640;7.494;2023-01-24T03:42:39;5.60;99.90
39957;DHT22;48483;44.640;7.494;2023-01-24T03:45:19;5.60;99.90
39957;DHT22;48483;44.640;7.494;2023-01-24T03:47:49;5.60;99.90
39957;DHT22;48483;44.640;7.494;2023-01-24T03:50:25;5.60;99.90
39957;DHT22;48483;44.640;7.494;2023-01-24T03:53:12;5.60;99.90
39957;DHT22;48483;44.640;7.494;2023-01-24T03:55:41;5.60;99.90
39957;DHT22;48483;44.640;7.494;2023-01-24T03:58:08;5.60;99.90
39957;DHT22;48483;44.640;7.494;2023-01-24T04:00:37;5.60;99.90
39957;DHT22;48483;44.640;7.494;2023-01-24T04:03:14;5.60;99.90
39957;DHT22;48483;44.640;7.494;2023-01-24T04:05:41;5.60;99.90
39957;DHT22;48483;44.640;7.494;2023-01-24T04:08:11;5.50;99.90
39957;DHT22;48483;44.640;7.494;2023-01-24T04:10:38;5.60;99.90
39957;DHT22;48483;44.640;7.494;2023-01-24T04:13:05;5.50;99.90
39957;DHT22;48483;44.640;7.494;2023-01-24T04:15:32;5.60;99.90
39957;DHT22;48483;44.640;7.494;2023-01-24T04:18:25;5.50;99.90
39957;DHT22;48483;44.640;7.494;2023-01-24T04:20:52;5.60;99.90
39957;DHT22;48483;44.640;7.494;2023-01-24T04:23:19;5.60;99.90
39957;DHT22;48483;44.640;7.494;2023-01-24T04:25:49;5.60;99.90
39957;DHT22;48483;44.640;7.494;2023-01-24T04:28:20;5.60;99.90
39957;DHT22;48483;44.640;7.494;2023-01-24T04:30:48;5.60;99.90
39957;DHT22;48483;44.640;7.494;2023-01-24T04:33:30;5.60;99.90
39957;DHT22;48483;44.640;7.494;2023-01-24T04:35:57;5.60;99.90
39957;DHT22;48483;44.640;7.494;2023-01-24T04:38:24;5.60;99.90
39957;DHT22;48483;44.640;7.494;2023-01-24T04:41:02;5.60;99.90
39957;DHT22;48483;44.640;7.494;2023-01-24T04:43:36;5.60;99.90
39957;DHT22;48483;44.640;7.494;2023-01-24T04:46:04;5.60;99.90
39957;DHT22;48483;44.640;7.494;2023-01-24T04:48:46;5.60;99.90
39957;DHT22;48483;44.640;7.494;2023-01-24T04:51:13;5.60;99.90
39957;DHT22;48483;44.640;7.494;2023-01-24T04:53:40;5.60;99.90
39957;DHT22;48483;44.640;7.494;2023-01-24T04:56:07;5.60;99.90
39957;DHT22;48483;44.640;7.494;2023-01-24T04:58:34;5.60;99.90
39957;DHT22;48483;44.640;7.494;2023-01-24T05:01:02;5.60;99.90
39957;DHT22;48483;44.640;7.494;2023-01-24T05:03:30;5.60;99.90
39957;DHT22;48483;44.640;7.494;2023-01-24T05:05:58;5.70;99.90
39957;DHT22;48483;44.640;7.494;2023-01-24T05:08:25;5.60;99.90
39957;DHT22;48483;44.640;7.494;2023-01-24T05:10:53;5.60;99.90
39957;DHT22;48483;44.640;7.494;2023-01-24T05:13:20;5.60;99.90
39957;DHT22;48483;44.640;7.494;2023-01-24T05:15:48;5.60;99.90
39957;DHT22;48483;44.640;7.494;2023-01-24T05:18:15;5.60;99.90
39957;DHT22;48483;44.640;7.494;2023-01-24T05:20:42;5.70;99.90
39957;DHT22;48483;44.640;7.494;2023-01-24T05:23:10;5.70;99.90
39957;DHT22;48483;44.640;7.494;2023-01-24T05:25:41;5.70;99.90
39957;DHT22;48483;44.640;7.494;2023-01-24T05:28:07;5.70;99.90
39957;DHT22;48483;44.640;7.494;2023-01-24T05:30:39;5.70;99.90
39957;DHT22;48483;44.640;7.494;2023-01-24T05:33:17;5.70;99.90
39957;DHT22;48483;44.640;7.494;2023-01-24T05:35:44;5.70;99.90
39957;DHT22;48483;44.640;7.494;2023-01-24T05:38:12;5.60;99.90
39957;DHT22;48483;44.640;7.494;2023-01-24T05:40:41;5.60;99.90
39957;DHT22;48483;44.640;7.494;2023-01-24T05:43:07;5.70;99.90
39957;DHT22;48483;44.640;7.494;2023-01-24T05:45:34;5.70;99.90
39957;DHT22;48483;44.640;7.494;2023-01-24T05:48:01;5.70;99.90
39957;DHT22;48483;44.640;7.494;2023-01-24T05:50:29;5.70;99.90
39957;DHT22;48483;44.640;7.494;2023-01-24T05:53:13;5.70;99.90
39957;DHT22;48483;44.640;7.494;2023-01-24T05:55:40;5.70;99.90
39957;DHT22;48483;44.640;7.494;2023-01-24T05:58:07;5.70;99.90
39957;DHT22;48483;44.640;7.494;2023-01-24T06:00:41;5.70;99.90
39957;DHT22;48483;44.640;7.494;2023-01-24T06:03:31;5.70;99.90
39957;DHT22;48483;44.640;7.494;2023-01-24T06:05:58;5.70;99.90
39957;DHT22;48483;44.640;7.494;2023-01-24T06:08:30;5.70;99.90
39957;DHT22;48483;44.640;7.494;2023-01-24T06:11:02;5.70;99.90
39957;DHT22;48483;44.640;7.494;2023-01-24T06:13:28;5.70;99.90
39957;DHT22;48483;44.640;7.494;2023-01-24T06:16:01;5.70;99.90
39957;DHT22;48483;44.640;7.494;2023-01-24T06:18:29;5.70;99.90
39957;DHT22;48483;44.640;7.494;2023-01-24T06:20:56;5.70;99.90
39957;DHT22;48483;44.640;7.494;2023-01-24T06:23:26;5.70;99.90
39957;DHT22;48483;44.640;7.494;2023-01-24T06:25:58;5.70;99.90
39957;DHT22;48483;44.640;7.494;2023-01-24T06:28:25;5.70;99.90
39957;DHT22;48483;44.640;7.494;2023-01-24T06:31:02;5.70;99.90
39957;DHT22;48483;44.640;7.494;2023-01-24T06:33:36;5.70;99.90
39957;DHT22;48483;44.640;7.494;2023-01-24T06:36:18;5.70;99.90
39957;DHT22;48483;44.640;7.494;2023-01-24T06:38:47;5.70;99.90
39957;DHT22;48483;44.640;7.494;2023-01-24T06:41:16;5.70;99.90
39957;DHT22;48483;44.640;7.494;2023-01-24T06:43:44;5.70;99.90
39957;DHT22;48483;44.640;7.494;2023-01-24T06:46:12;5.70;99.90
39957;DHT22;48483;44.640;7.494;2023-01-24T06:48:42;5.70;99.90
39957;DHT22;48483;44.640;7.494;2023-01-24T06:51:10;5.70;99.90
39957;DHT22;48483;44.640;7.494;2023-01-24T06:53:37;5.70;99.90
39957;DHT22;48483;44.640;7.494;2023-01-24T06:56:04;5.70;99.90
39957;DHT22;48483;44.640;7.494;2023-01-24T06:58:32;5.80;99.90
39957;DHT22;48483;44.640;7.494;2023-01-24T07:00:59;5.80;99.90
39957;DHT22;48483;44.640;7.494;2023-01-24T07:03:25;5.80;99.90
39957;DHT22;48483;44.640;7.494;2023-01-24T07:05:52;5.80;99.90
39957;DHT22;48483;44.640;7.494;2023-01-24T07:08:18;5.80;99.90
39957;DHT22;48483;44.640;7.494;2023-01-24T07:10:47;5.80;99.90
39957;DHT22;48483;44.640;7.494;2023-01-24T07:13:14;5.80;99.90
39957;DHT22;48483;44.640;7.494;2023-01-24T07:15:41;5.80;99.90
39957;DHT22;48483;44.640;7.494;2023-01-24T07:18:10;5.80;99.90
39957;DHT22;48483;44.640;7.494;2023-01-24T07:20:37;5.90;99.90
39957;DHT22;48483;44.640;7.494;2023-01-24T07:23:04;5.90;99.90
39957;DHT22;48483;44.640;7.494;2023-01-24T07:25:31;5.80;99.90
39957;DHT22;48483;44.640;7.494;2023-01-24T07:27:59;5.80;99.90
39957;DHT22;48483;44.640;7.494;2023-01-24T07:30:25;5.90;99.90
39957;DHT22;48483;44.640;7.494;2023-01-24T07:32:55;5.90;99.90
39957;DHT22;48483;44.640;7.494;2023-01-24T07:35:22;5.90;99.90
39957;DHT22;48483;44.640;7.494;2023-01-24T07:37:48;5.90;99.90
39957;DHT22;48483;44.640;7.494;2023-01-24T07:40:15;5.90;99.90
39957;DHT22;48483;44.640;7.494;2023-01-24T07:42:42;5.90;99.90
39957;DHT22;48483;44.640;7.494;2023-01-24T07:45:09;5.90;99.90
39957;DHT22;48483;44.640;7.494;2023-01-24T07:47:36;5.90;99.90
39957;DHT22;48483;44.640;7.494;2023-01-24T07:50:05;5.90;99.90
39957;DHT22;48483;44.640;7.494;2023-01-24T07:52:31;6.00;99.90
39957;DHT22;48483;44.640;7.494;2023-01-24T07:54:58;6.00;99.90
39957;DHT22;48483;44.640;7.494;2023-01-24T07:57:24;5.90;99.90
39957;DHT22;48483;44.640;7.494;2023-01-24T07:59:51;6.00;99.90
39957;DHT22;48483;44.640;7.494;2023-01-24T08:02:17;6.00;99.90
39957;DHT22;48483;44.640;7.494;2023-01-24T08:04:44;6.00;99.90
39957;DHT22;48483;44.640;7.494;2023-01-24T08:07:12;6.00;99.90
39957;DHT22;48483;44.640;7.494;2023-01-24T08:09:45;6.00;99.90
39957;DHT22;48483;44.640;7.494;2023-01-24T08:12:12;6.00;99.90
39957;DHT22;48483;44.640;7.494;2023-01-24T08:14:39;6.00;99.90
39957;DHT22;48483;44.640;7.494;2023-01-24T08:17:05;6.00;99.90
39957;DHT22;48483;44.640;7.494;2023-01-24T08:19:32;6.10;99.90
39957;DHT22;48483;44.640;7.494;2023-01-24T08:21:59;6.00;99.90
39957;DHT22;48483;44.640;7.494;2023-01-24T08:24:27;6.10;99.90
39957;DHT22;48483;44.640;7.494;2023-01-24T08:26:53;6.10;99.90
39957;DHT22;48483;44.640;7.494;2023-01-24T08:29:20;6.10;99.90
39957;DHT22;48483;44.640;7.494;2023-01-24T08:31:46;6.10;99.90
39957;DHT22;48483;44.640;7.494;2023-01-24T08:34:14;6.10;99.90
39957;DHT22;48483;44.640;7.494;2023-01-24T08:36:41;6.10;99.90
39957;DHT22;48483;44.640;7.494;2023-01-24T08:39:07;6.10;99.90
39957;DHT22;48483;44.640;7.494;2023-01-24T08:41:35;6.10;99.90
39957;DHT22;48483;44.640;7.494;2023-01-24T08:44:02;6.20;99.90
39957;DHT22;48483;44.640;7.494;2023-01-24T08:46:29;6.20;99.90
39957;DHT22;48483;44.640;7.494;2023-01-24T08:48:56;6.20;99.90
39957;DHT22;48483;44.640;7.494;2023-01-24T08:51:22;6.20;99.90
39957;DHT22;48483;44.640;7.494;2023-01-24T08:53:49;6.20;99.90
39957;DHT22;48483;44.640;7.494;2023-01-24T08:56:15;6.20;99.90
39957;DHT22;48483;44.640;7.494;2023-01-24T08:58:43;6.20;99.90
39957;DHT22;48483;44.640;7.494;2023-01-24T09:01:10;6.20;99.90
39957;DHT22;48483;44.640;7.494;2023-01-24T09:03:37;6.30;99.90
39957;DHT22;48483;44.640;7.494;2023-01-24T09:06:04;6.20;99.90
39957;DHT22;48483;44.640;7.494;2023-01-24T09:08:31;6.30;99.90
39957;DHT22;48483;44.640;7.494;2023-01-24T09:10:58;6.20;99.90
39957;DHT22;48483;44.640;7.494;2023-01-24T09:13:24;6.20;99.90
39957;DHT22;48483;44.640;7.494;2023-01-24T09:15:52;6.20;99.90
39957;DHT22;48483;44.640;7.494;2023-01-24T09:18:19;6.30;99.90
39957;DHT22;48483;44.640;7.494;2023-01-24T09:20:46;6.20;99.90
39957;DHT22;48483;44.640;7.494;2023-01-24T09:23:13;6.30;99.90
39957;DHT22;48483;44.640;7.494;2023-01-24T09:25:41;6.30;99.90
39957;DHT22;48483;44.640;7.494;2023-01-24T09:28:08;6.30;99.90
39957;DHT22;48483;44.640;7.494;2023-01-24T09:30:35;6.30;99.90
39957;DHT22;48483;44.640;7.494;2023-01-24T09:33:04;6.30;99.90
39957;DHT22;48483;44.640;7.494;2023-01-24T09:35:30;6.30;99.90
39957;DHT22;48483;44.640;7.494;2023-01-24T09:37:57;6.30;99.90
39957;DHT22;48483;44.640;7.494;2023-01-24T09:40:26;6.40;99.90
39957;DHT22;48483;44.640;7.494;2023-01-24T09:43:00;6.40;99.90
39957;DHT22;48483;44.640;7.494;2023-01-24T09:45:30;6.40;99.90
39957;DHT22;48483;44.640;7.494;2023-01-24T09:47:59;6.40;99.90
39957;DHT22;48483;44.640;7.494;2023-01-24T09:50:31;6.40;99.90
39957;DHT22;48483;44.640;7.494;2023-01-24T09:53:01;6.40;99.90
39957;DHT22;48483;44.640;7.494;2023-01-24T09:55:31;6.40;99.90
39957;DHT22;48483;44.640;7.494;2023-01-24T09:58:02;6.50;99.90
39957;DHT22;48483;44.640;7.494;2023-01-24T10:00:33;6.50;99.90
39957;DHT22;48483;44.640;7.494;2023-01-24T10:03:02;6.50;99.90
39957;DHT22;48483;44.640;7.494;2023-01-24T10:05:33;6.50;99.90
39957;DHT22;48483;44.640;7.494;2023-01-24T10:08:12;6.50;99.90
39957;DHT22;48483;44.640;7.494;2023-01-24T10:10:49;6.50;99.90
39957;DHT22;48483;44.640;7.494;2023-01-24T10:13:48;6.60;99.90
39957;DHT22;48483;44.640;7.494;2023-01-24T10:16:38;6.50;99.90
39957;DHT22;48483;44.640;7.494;2023-01-24T10:19:12;6.60;99.90
39957;DHT22;48483;44.640;7.494;2023-01-24T10:21:54;6.60;99.90
39957;DHT22;48483;44.640;7.494;2023-01-24T10:24:30;6.70;99.90
39957;DHT22;48483;44.640;7.494;2023-01-24T10:26:59;6.70;99.90
39957;DHT22;48483;44.640;7.494;2023-01-24T10:29:30;6.70;99.90
39957;DHT22;48483;44.640;7.494;2023-01-24T10:32:00;6.70;99.90
39957;DHT22;48483;44.640;7.494;2023-01-24T10:34:32;6.70;99.90
39957;DHT22;48483;44.640;7.494;2023-01-24T10:37:04;6.80;99.90
39957;DHT22;48483;44.640;7.494;2023-01-24T10:39:32;6.90;99.90
39957;DHT22;48483;44.640;7.494;2023-01-24T10:41:58;6.90;99.90
39957;DHT22;48483;44.640;7.494;2023-01-24T10:44:26;6.90;99.90
39957;DHT22;48483;44.640;7.494;2023-01-24T10:47:20;6.90;99.90
39957;DHT22;48483;44.640;7.494;2023-01-24T10:49:59;6.90;99.90
39957;DHT22;48483;44.640;7.494;2023-01-24T10:52:27;7.00;99.90
39957;DHT22;48483;44.640;7.494;2023-01-24T10:54:56;7.00;99.90
39957;DHT22;48483;44.640;7.494;2023-01-24T10:57:38;7.00;99.90
39957;DHT22;48483;44.640;7.494;2023-01-24T11:00:23;7.10;99.90
39957;DHT22;48483;44.640;7.494;2023-01-24T11:02:55;7.10;99.90
39957;DHT22;48483;44.640;7.494;2023-01-24T11:05:23;7.10;99.90
39957;DHT22;48483;44.640;7.494;2023-01-24T11:07:53;7.10;99.90
39957;DHT22;48483;44.640;7.494;2023-01-24T11:10:23;7.10;99.90
39957;DHT22;48483;44.640;7.494;2023-01-24T11:12:52;7.20;99.90
39957;DHT22;48483;44.640;7.494;2023-01-24T11:15:23;7.20;99.90
39957;DHT22;48483;44.640;7.494;2023-01-24T11:17:56;7.20;99.90
39957;DHT22;48483;44.640;7.494;2023-01-24T11:20:29;7.20;99.90
39957;DHT22;48483;44.640;7.494;2023-01-24T11:23:04;7.20;99.90
39957;DHT22;48483;44.640;7.494;2023-01-24T11:25:31;7.30;99.90
39957;DHT22;48483;44.640;7.494;2023-01-24T11:27:58;7.30;99.90
39957;DHT22;48483;44.640;7.494;2023-01-24T11:30:27;7.30;99.90
39957;DHT22;48483;44.640;7.494;2023-01-24T11:33:11;7.30;99.90
39957;DHT22;48483;44.640;7.494;2023-01-24T11:35:44;7.30;99.90
39957;DHT22;48483;44.640;7.494;2023-01-24T11:38:25;7.30;99.90
39957;DHT22;48483;44.640;7.494;2023-01-24T11:41:03;7.40;99.90
39957;DHT22;48483;44.640;7.494;2023-01-24T11:43:47;7.40;99.90
39957;DHT22;48483;44.640;7.494;2023-01-24T11:46:25;7.40;99.90
39957;DHT22;48483;44.640;7.494;2023-01-24T11:48:55;7.50;99.90
39957;DHT22;48483;44.640;7.494;2023-01-24T11:51:33;7.50;99.90
39957;DHT22;48483;44.640;7.494;2023-01-24T11:54:26;7.50;99.90
39957;DHT22;48483;44.640;7.494;2023-01-24T11:57:01;7.60;99.90
39957;DHT22;48483;44.640;7.494;2023-01-24T11:59:42;7.60;99.90
39957;DHT22;48483;44.640;7.494;2023-01-24T12:02:35;7.60;99.90
39957;DHT22;48483;44.640;7.494;2023-01-24T12:05:24;7.60;99.90
39957;DHT22;48483;44.640;7.494;2023-01-24T12:08:11;7.70;99.90
39957;DHT22;48483;44.640;7.494;2023-01-24T12:10:54;7.70;99.90
39957;DHT22;48483;44.640;7.494;2023-01-24T12:13:29;7.70;99.90
39957;DHT22;48483;44.640;7.494;2023-01-24T12:16:04;7.70;99.90
39957;DHT22;48483;44.640;7.494;2023-01-24T12:18:52;7.70;99.90
39957;DHT22;48483;44.640;7.494;2023-01-24T12:21:24;7.70;99.90
39957;DHT22;48483;44.640;7.494;2023-01-24T12:23:55;7.80;99.90
39957;DHT22;48483;44.640;7.494;2023-01-24T12:26:26;7.80;99.90
39957;DHT22;48483;44.640;7.494;2023-01-24T12:29:00;7.80;99.90
39957;DHT22;48483;44.640;7.494;2023-01-24T12:31:39;7.90;99.90
39957;DHT22;48483;44.640;7.494;2023-01-24T12:34:18;7.90;99.90
39957;DHT22;48483;44.640;7.494;2023-01-24T12:36:56;8.00;99.90
39957;DHT22;48483;44.640;7.494;2023-01-24T12:39:28;8.00;99.90
39957;DHT22;48483;44.640;7.494;2023-01-24T12:42:05;8.00;99.90
39957;DHT22;48483;44.640;7.494;2023-01-24T12:44:37;8.00;99.90
39957;DHT22;48483;44.640;7.494;2023-01-24T12:47:18;8.00;99.90
39957;DHT22;48483;44.640;7.494;2023-01-24T12:49:56;8.00;99.90
39957;DHT22;48483;44.640;7.494;2023-01-24T12:52:33;7.90;99.90
39957;DHT22;48483;44.640;7.494;2023-01-24T12:55:04;7.90;99.90
39957;DHT22;48483;44.640;7.494;2023-01-24T12:57:40;8.00;99.90
39957;DHT22;48483;44.640;7.494;2023-01-24T13:00:14;7.90;99.90
39957;DHT22;48483;44.640;7.494;2023-01-24T13:02:57;8.00;99.90
39957;DHT22;48483;44.640;7.494;2023-01-24T13:05:39;8.00;99.90
39957;DHT22;48483;44.640;7.494;2023-01-24T13:08:16;8.00;99.90
39957;DHT22;48483;44.640;7.494;2023-01-24T13:10:54;8.00;99.90
39957;DHT22;48483;44.640;7.494;2023-01-24T13:13:26;8.00;99.90
39957;DHT22;48483;44.640;7.494;2023-01-24T13:16:03;7.90;99.90
39957;DHT22;48483;44.640;7.494;2023-01-24T13:18:42;7.90;99.90
39957;DHT22;48483;44.640;7.494;2023-01-24T13:21:17;7.90;99.90
39957;DHT22;48483;44.640;7.494;2023-01-24T13:24:12;7.90;99.90
39957;DHT22;48483;44.640;7.494;2023-01-24T13:27:13;7.90;99.90
39957;DHT22;48483;44.640;7.494;2023-01-24T13:29:51;7.90;99.90
39957;DHT22;48483;44.640;7.494;2023-01-24T13:32:24;7.90;99.90
39957;DHT22;48483;44.640;7.494;2023-01-24T13:34:52;7.90;99.90
39957;DHT22;48483;44.640;7.494;2023-01-24T13:37:23;7.90;99.90
39957;DHT22;48483;44.640;7.494;2023-01-24T13:40:00;7.90;99.90
39957;DHT22;48483;44.640;7.494;2023-01-24T13:42:32;7.90;99.90
39957;DHT22;48483;44.640;7.494;2023-01-24T13:51:44;7.90;99.90
39957;DHT22;48483;44.640;7.494;2023-01-24T13:54:20;7.90;99.90
39957;DHT22;48483;44.640;7.494;2023-01-24T13:57:15;7.90;99.90
39957;DHT22;48483;44.640;7.494;2023-01-24T14:02:42;8.00;99.90
39957;DHT22;48483;44.640;7.494;2023-01-24T14:05:42;7.90;99.90
39957;DHT22;48483;44.640;7.494;2023-01-24T14:08:16;7.90;99.90
39957;DHT22;48483;44.640;7.494;2023-01-24T14:11:18;7.90;99.90
39957;DHT22;48483;44.640;7.494;2023-01-24T14:13:55;7.90;99.90
39957;DHT22;48483;44.640;7.494;2023-01-24T14:16:57;7.90;99.90
39957;DHT22;48483;44.640;7.494;2023-01-24T14:19:29;7.90;99.90
39957;DHT22;48483;44.640;7.494;2023-01-24T14:22:00;7.90;99.90
39957;DHT22;48483;44.640;7.494;2023-01-24T14:24:33;7.90;99.90
39957;DHT22;48483;44.640;7.494;2023-01-24T14:27:08;7.90;99.90
39957;DHT22;48483;44.640;7.494;2023-01-24T14:29:42;8.00;99.90
39957;DHT22;48483;44.640;7.494;2023-01-24T14:32:18;7.90;99.90
39957;DHT22;48483;44.640;7.494;2023-01-24T14:35:02;7.90;99.90
39957;DHT22;48483;44.640;7.494;2023-01-24T14:37:32;7.90;99.90
39957;DHT22;48483;44.640;7.494;2023-01-24T14:40:18;7.90;99.90
39957;DHT22;48483;44.640;7.494;2023-01-24T14:42:46;7.90;99.90
39957;DHT22;48483;44.640;7.494;2023-01-24T14:45:14;7.90;99.90
39957;DHT22;48483;44.640;7.494;2023-01-24T14:47:45;7.90;99.90
39957;DHT22;48483;44.640;7.494;2023-01-24T14:50:22;7.90;99.90
39957;DHT22;48483;44.640;7.494;2023-01-24T14:52:49;7.90;99.90
39957;DHT22;48483;44.640;7.494;2023-01-24T14:55:31;7.90;99.90
39957;DHT22;48483;44.640;7.494;2023-01-24T14:58:18;7.90;99.90
39957;DHT22;48483;44.640;7.494;2023-01-24T15:00:46;7.90;99.90
39957;DHT22;48483;44.640;7.494;2023-01-24T15:03:17;7.90;99.90
39957;DHT22;48483;44.640;7.494;2023-01-24T15:06:05;7.90;99.90
39957;DHT22;48483;44.640;7.494;2023-01-24T15:08:33;8.00;99.90
39957;DHT22;48483;44.640;7.494;2023-01-24T15:11:03;8.00;99.90
39957;DHT22;48483;44.640;7.494;2023-01-24T15:13:35;8.00;99.90
39957;DHT22;48483;44.640;7.494;2023-01-24T15:16:03;8.00;99.90
39957;DHT22;48483;44.640;7.494;2023-01-24T15:18:40;8.00;99.90
39957;DHT22;48483;44.640;7.494;2023-01-24T15:21:30;8.00;99.90
39957;DHT22;48483;44.640;7.494;2023-01-24T15:23:57;8.00;99.90
39957;DHT22;48483;44.640;7.494;2023-01-24T15:26:37;8.00;99.90
39957;DHT22;48483;44.640;7.494;2023-01-24T15:29:42;8.00;99.90
39957;DHT22;48483;44.640;7.494;2023-01-24T15:32:29;7.90;99.90
39957;DHT22;48483;44.640;7.494;2023-01-24T15:35:28;7.90;99.90
39957;DHT22;48483;44.640;7.494;2023-01-24T15:38:19;7.90;99.90
39957;DHT22;48483;44.640;7.494;2023-01-24T15:40:49;7.90;99.90
39957;DHT22;48483;44.640;7.494;2023-01-24T15:43:19;7.90;99.90
39957;DHT22;48483;44.640;7.494;2023-01-24T15:46:06;7.90;99.90
39957;DHT22;48483;44.640;7.494;2023-01-24T15:48:59;7.90;99.90
39957;DHT22;48483;44.640;7.494;2023-01-24T15:51:32;7.90;99.90
39957;DHT22;48483;44.640;7.494;2023-01-24T15:54:01;7.90;99.90
39957;DHT22;48483;44.640;7.494;2023-01-24T15:56:28;7.90;99.90
39957;DHT22;48483;44.640;7.494;2023-01-24T15:58:55;7.80;99.90
39957;DHT22;48483;44.640;7.494;2023-01-24T16:01:27;7.80;99.90
39957;DHT22;48483;44.640;7.494;2023-01-24T16:04:04;7.80;99.90
39957;DHT22;48483;44.640;7.494;2023-01-24T16:06:35;7.80;99.90
39957;DHT22;48483;44.640;7.494;2023-01-24T16:09:03;7.80;99.90
39957;DHT22;48483;44.640;7.494;2023-01-24T16:11:29;7.80;99.90
39957;DHT22;48483;44.640;7.494;2023-01-24T16:13:56;7.80;99.90
39957;DHT22;48483;44.640;7.494;2023-01-24T16:16:23;7.80;99.90
39957;DHT22;48483;44.640;7.494;2023-01-24T16:18:49;7.70;99.90
39957;DHT22;48483;44.640;7.494;2023-01-24T16:21:16;7.70;99.90
39957;DHT22;48483;44.640;7.494;2023-01-24T16:23:43;7.60;99.90
39957;DHT22;48483;44.640;7.494;2023-01-24T16:26:18;7.60;99.90
39957;DHT22;48483;44.640;7.494;2023-01-24T16:28:46;7.60;99.90
39957;DHT22;48483;44.640;7.494;2023-01-24T16:31:12;7.50;99.90